x

9755371 - San Juan, Pr (sjnp4) Weather Station

11:42am - Tue 16th Sep 2014 All times are AST. -4 hours from GMT.

  • Wind
    13mph, 17mph gusts
  • Air Temp 85°f
  • Sea Pressure 1015.2mb
  • 9755371 - San Juan, Pr
  • 9755371 - San Juan, Pr

More Historic Weather Station data

Upgrade to MSW Pro to gain access to the past 30 days of data for over 8000 Wavebouys and Weather Stations around the globe.

Join Pro

Comparision Forecast

View Surf forecast
   
Tue 09/16 11:42am 13 17 mph 1015.2mb - 85f
11:36am 10 15 mph 1015.3mb - 85f
11:30am 9 14 mph 1015.4mb 85f 85f
11:24am 11 14 mph 1015.5mb 85f 85f
11:18am 10 14 mph 1015.6mb 86f 85f
11:12am 10 14 mph 1015.7mb 85f 85f
11:06am 10 14 mph 1015.7mb 85f 84f
11:00am 11 14 mph 1015.7mb 85f 84f
10:54am 9 15 mph 1015.8mb 85f 85f
10:30am 9 14 mph 1015.7mb - -
10:24am  -  mph - 85f 85f
10:18am  -  mph - - 85f
10:12am  -  mph 1015.9mb - -
9:54am  -  mph - - 84f
9:48am  -  mph - - 85f
9:24am  -  mph - - 85f
9:18am  -  mph - - 85f
9:12am  -  mph - - 85f
9:06am  -  mph - - 85f
9:00am 2 5 mph - - 84f
8:54am  -  1 mph - - 83f
8:48am  -  2 mph 1015.7mb - 82f
8:42am  -  2 mph 1015.7mb - 82f
8:36am 2
mph
1015.6mb - 82f
8:30am 2
mph
- - 82f
8:24am  -  2 mph - - 82f
8:18am 1 2 mph 1015.3mb - 82f
8:12am 2
mph
1015.3mb - 82f
8:06am 1 3 mph 1015.2mb - 82f
8:00am 2 3 mph 1015.1mb 85f 83f
7:54am 2 3 mph 1015.1mb 85f 83f
7:48am 2 3 mph 1015mb 85f 83f
7:42am 2 3 mph 1015mb 85f 83f
7:36am 2 3 mph 1014.9mb 85f 82f
7:30am  -  mph 1014.9mb 85f 82f
7:24am  -  mph 1014.8mb 85f 81f
7:18am 3
mph
1014.8mb 85f 80f
7:12am 3
mph
1014.8mb 85f 79f
7:06am 3
mph
1014.7mb 85f 79f
7:00am 3 5 mph 1014.6mb 85f 78f
6:54am 2 3 mph 1014.6mb 85f 78f
6:48am 3 5 mph 1014.6mb 85f 78f
6:42am 3 5 mph 1014.6mb 85f 78f
6:36am 3
mph
1014.5mb 85f 78f
6:30am 2 3 mph - 85f 78f
6:24am 3 5 mph - 85f 78f
6:18am 3
mph
1014.4mb 85f 78f
6:12am 3 5 mph 1014.4mb 85f 78f
6:06am 2 5 mph 1014.3mb 85f 78f
6:00am 3 5 mph 1014.3mb 85f 78f
5:54am 3 5 mph 1014.2mb 85f 78f
5:48am 3 5 mph 1014.2mb 85f 78f
5:42am 5
mph
1014.2mb 85f 78f
5:36am 3 5 mph 1014.1mb 85f 79f
5:30am 3
mph
1014.1mb 85f 79f
5:24am 2 3 mph 1014.2mb 85f 79f
5:18am 3 5 mph 1014.2mb 85f 79f
5:06am 3 5 mph 1014.1mb 85f 79f
5:00am 5 6 mph 1014.1mb 85f 79f
4:54am 3
mph
1014mb 85f 79f
4:48am 3 5 mph 1014.1mb 85f 79f
4:42am 3 5 mph 1014mb 85f 79f
4:36am 3 5 mph 1014mb 85f 80f
4:30am 2 3 mph 1014mb 85f 79f
4:24am 2 3 mph 1014.1mb 85f 80f
4:18am 2
mph
1014.1mb 85f 79f
4:12am 2
mph
1014mb 85f 80f
4:06am  -  1 mph 1014mb 85f 80f
4:00am 1 2 mph 1014mb 85f 79f
3:54am 1 2 mph 1014mb 85f 79f
3:42am 2 5 mph 1014mb 85f 79f
3:36am 3
mph
1014.1mb 85f 79f
3:30am 2 3 mph 1014.1mb 85f 80f
3:24am 3
mph
1014.1mb 85f 80f
3:18am 3
mph
- - -
3:12am 3 5 mph 1014.1mb - 80f
3:06am 3 5 mph 1014.1mb - 80f
3:00am 3 5 mph 1014.1mb - 80f
2:54am  -  mph 1014.2mb - 80f
2:48am  -  mph - - 80f
2:42am  -  mph - - 80f
2:30am  -  mph - - 81f
2:24am  -  mph - - 81f
2:18am  -  mph - - 81f
2:12am  -  mph - - 81f
2:06am  -  mph - - 81f
2:00am  -  mph - - 81f
1:48am  -  mph - 85f 81f
1:42am  -  mph - 85f 80f
1:36am  -  mph - 85f 80f
1:30am  -  mph 1015.2mb 85f 80f
1:24am 5 6 mph 1015.3mb 85f 80f
1:06am 3
mph
1015.4mb 85f 80f
1:00am  -  mph 1015.5mb 85f -
12:54am 2 3 mph 1015.5mb 85f -
12:48am  -  mph 1015.5mb 85f 81f
12:42am 3
mph
1015.7mb 85f 81f
12:36am 3
mph
1015.7mb 85f 81f
12:30am  -  mph - 85f -
12:24am  -  mph - 85f -
12:18am  -  mph - - 81f
12:12am  -  mph - - 81f
12:06am  -  mph - - 80f
12:00am  -  mph 1016mb - -
Mon 09/15 11:54pm  -  mph 1016.1mb - -
11:48pm  -  mph 1016.1mb - -
11:42pm  -  mph 1016.1mb - 81f
11:36pm  -  mph 1016.1mb - 81f
11:30pm 2 3 mph 1016.1mb - 80f
11:24pm 3 9 mph 1016.2mb - 81f
11:18pm  -  mph 1016.3mb 85f 83f
11:12pm  -  mph 1016.2mb 85f 83f
11:06pm  -  mph 1016.2mb 85f 83f
11:00pm 5 6 mph - - 83f
10:54pm 5 6 mph - - 83f
10:48pm  -  mph 1016.4mb - -
10:42pm  -  mph 1016.4mb - -
10:36pm  -  mph 1016.5mb - -
10:30pm  -  mph - 85f 83f
10:24pm  -  mph - 85f 83f
10:18pm 5 7 mph - 85f 83f
10:12pm 6 7 mph - 85f 83f
10:06pm 5 7 mph - 85f 83f
10:00pm 5 7 mph 1016.3mb 85f 83f
9:54pm 7 8 mph 1016.3mb 85f 83f
9:48pm 7 9 mph 1016.3mb 85f 83f
9:42pm 8 9 mph 1016.2mb 85f 83f
9:36pm 6 7 mph 1016.2mb 85f 84f
9:30pm 7 9 mph 1016.1mb 85f 83f
9:24pm 8 10 mph 1016mb 85f 84f
9:18pm 6 7 mph 1016mb 85f 84f
9:12pm 3 6 mph 1016mb 85f 83f
9:06pm 6 8 mph 1015.8mb 85f 83f
9:00pm 5 8 mph 1015.7mb 85f 83f
8:54pm 6 8 mph 1015.6mb 85f 83f
8:48pm 6 9 mph 1015.5mb 85f 83f
8:42pm 5 7 mph 1015.4mb 85f 84f
8:36pm 5 7 mph 1015.3mb 85f 84f
8:30pm 6 8 mph 1015.2mb 85f 84f
8:24pm 6 10 mph 1015.2mb 85f 84f
8:18pm 8 10 mph 1015.1mb 85f 84f
8:12pm 6 9 mph 1015mb 85f 84f
8:06pm 6 9 mph 1014.9mb 85f 84f
8:00pm 6 8 mph 1014.7mb 85f 84f
7:54pm 6 8 mph 1014.8mb 85f 84f
7:48pm 7 9 mph 1014.7mb 85f 84f
7:42pm 7 11 mph 1014.6mb 85f 84f
7:36pm 6 9 mph 1014.5mb 85f 84f
7:30pm 7 9 mph 1014.4mb 85f 84f
7:24pm 5 7 mph 1014.5mb 85f 84f
7:18pm 5 7 mph 1014.4mb 85f 84f
7:12pm 5 7 mph 1014.4mb 85f 84f
7:06pm 5 10 mph 1014.4mb 85f 84f
7:00pm 7 10 mph 1014.3mb 85f 84f
6:54pm 7 10 mph 1014.3mb 85f 84f
6:48pm 6 10 mph 1014.3mb 85f 84f
6:42pm 6 8 mph 1014.3mb 85f 84f
6:36pm 5 11 mph 1014.2mb 85f 84f
6:30pm 5 10 mph 1014.2mb 85f 84f
6:24pm 6 8 mph 1014.2mb 85f 84f
6:18pm 6 9 mph 1014.1mb 85f 84f
6:12pm 6 10 mph 1014mb 85f 84f
6:06pm 6 8 mph 1014mb 85f 84f
6:00pm 6 11 mph 1014.1mb 85f 84f
5:54pm 6 9 mph 1014mb 85f 84f
5:48pm 6 10 mph 1013.8mb 85f 84f
5:42pm 6 10 mph 1013.6mb 85f 84f
5:36pm 9 13 mph 1013.6mb 85f 84f
5:30pm 9 14 mph 1013.6mb 85f 84f
5:24pm 8 11 mph 1013.6mb 85f 84f
5:18pm 7 11 mph 1013.6mb 85f 84f
5:12pm 6 10 mph 1013.6mb 85f 84f
5:06pm 8 13 mph 1013.7mb 85f 84f
5:00pm 6 9 mph 1013.7mb 85f 85f
4:54pm 6 8 mph 1013.7mb 85f 85f
4:48pm 6 11 mph 1013.8mb 85f 85f
4:42pm 8 13 mph 1013.6mb 85f 84f
4:36pm 10 14 mph 1013.6mb 85f 84f
4:30pm 10 14 mph 1013.7mb 85f 84f
4:24pm 10 14 mph 1013.9mb 85f 84f
4:18pm 6 11 mph 1014mb 85f 85f
3:42pm 8 11 mph 1014.2mb 85f 85f
3:36pm 9 14 mph 1014mb 85f 85f
3:30pm 9 14 mph 1014mb 85f 85f
3:24pm 9 11 mph 1014mb 85f 85f
3:18pm 7 14 mph 1014.1mb 85f 84f
3:12pm 11 14 mph 1014.1mb 85f 84f
3:06pm 9 14 mph 1014.2mb 85f 84f
3:00pm 7 11 mph 1014.3mb 85f 85f
2:54pm 8 14 mph 1014.4mb 85f 86f
2:48pm 10 14 mph 1014.4mb 85f 85f
2:36pm 9 16 mph 1014mb 85f 86f
2:30pm 10 14 mph 1013.9mb 85f 85f
2:24pm 9 14 mph 1014.1mb 85f 85f
2:18pm 9 14 mph 1014.1mb 85f 85f
2:12pm 10 14 mph 1014.2mb 85f 85f
2:06pm 10 15 mph 1014.2mb 85f 86f
2:00pm 9 15 mph 1014.3mb 85f 85f
1:48pm 8 15 mph 1014.4mb 85f 86f
1:42pm 9 13 mph 1014.4mb 85f 86f
1:36pm 10 13 mph 1014.5mb 85f 85f
1:30pm 9 14 mph 1014.5mb 85f 86f
1:24pm 8 13 mph 1014.6mb 85f 86f
1:18pm 9 14 mph 1014.5mb 85f 86f
1:12pm 8 11 mph 1014.7mb 85f 85f
1:06pm 7 11 mph 1014.9mb 85f 85f
1:00pm 9 13 mph 1015mb 85f 85f
12:54pm 7 13 mph 1015.1mb 85f 85f
12:48pm 9 14 mph 1015.2mb 85f 86f
12:42pm 8 14 mph 1015.2mb 85f 85f
12:36pm 10 13 mph 1015.3mb 85f 86f
12:30pm 6 8 mph 1015.4mb 85f 86f
12:24pm 6 10 mph 1015.4mb 85f 86f
12:18pm 7 11 mph 1015.6mb 85f 85f
12:12pm 8 11 mph 1015.8mb 85f 85f
12:06pm 7 10 mph 1015.8mb 85f 85f
12:00pm 7 9 mph 1015.9mb 85f 85f
11:54am 7 11 mph 1015.9mb 85f 85f
11:48am 6 11 mph 1015.9mb 85f 85f
11:42am 7 10 mph 1016mb 85f 85f
11:36am 9 11 mph 1016mb 85f 84f
11:30am 7 10 mph 1016.2mb 85f 85f
11:24am 7 9 mph 1016.3mb 85f 84f
11:18am 3 8 mph 1016.2mb 85f 85f
11:12am 6 8 mph 1016.3mb 85f 85f
11:06am 7 9 mph 1016.4mb 85f 85f
11:00am 5 8 mph 1016.4mb 85f 85f
10:54am 3 7 mph 1016.5mb 85f 85f
10:48am 5 6 mph 1016.5mb 85f 85f
10:42am 6 9 mph 1016.6mb 85f 85f
10:36am 5 7 mph 1016.7mb 85f 85f
10:30am 5 7 mph 1016.6mb 85f 85f
10:24am 3 6 mph 1016.6mb 85f 85f
10:18am 5 7 mph 1016.6mb 85f 85f
10:12am 5 7 mph 1016.7mb 85f 85f
10:06am 2 6 mph 1016.7mb 85f 85f
10:00am  -  3 mph 1016.7mb 85f 85f
9:54am 3 5 mph 1016.6mb 85f 83f
9:48am 5 6 mph 1016.6mb 85f 83f
9:42am 3 5 mph 1016.7mb 85f 83f
9:36am 3 5 mph 1016.7mb 85f 83f
9:30am 3 5 mph 1016.7mb 85f 83f
9:24am 2 3 mph 1016.8mb 85f 82f
9:18am 3
mph
1016.7mb 85f 82f
9:12am 1 3 mph 1016.6mb 85f 82f
9:06am 3 5 mph 1016.6mb 85f 82f
9:00am  -  mph 1016.5mb 85f 82f
8:54am  -  1 mph 1016.5mb 85f 81f
8:48am  -  2 mph 1016.5mb 85f 81f
8:42am 2 3 mph 1016.5mb 84f 81f
8:36am 3 5 mph 1016.4mb 84f 80f
8:30am 3 5 mph 1016.4mb 84f 80f
8:24am 5 6 mph 1016.4mb 84f 80f
8:18am 6 7 mph 1016.4mb 84f 81f
8:12am 5 7 mph 1016.4mb 84f 81f
8:06am 6
mph
1016.3mb 84f 81f
8:00am 6 7 mph 1016.2mb 84f 80f
7:54am 6
mph
1016.1mb 84f 80f
7:48am 6 7 mph 1016mb 84f 79f
7:42am 6 7 mph 1015.9mb 84f 79f
7:36am 6 7 mph 1015.9mb 84f 79f
7:30am 6 7 mph 1015.8mb 84f 79f
7:24am 6 7 mph 1015.8mb 84f 79f
7:18am 6 8 mph 1015.8mb 84f 79f
7:12am 6 7 mph 1015.6mb 84f 79f
7:06am 6
mph
1015.6mb 84f 79f
7:00am 5 7 mph 1015.5mb 84f 79f
6:54am 5 6 mph 1015.5mb 84f 79f
6:48am 3 6 mph 1015.4mb 84f 79f
6:42am 3 5 mph 1015.4mb 84f 79f
6:36am 5 6 mph 1015.3mb 84f 79f
6:30am 6 7 mph 1015.3mb 84f 79f
6:24am 7 8 mph 1015.3mb 84f 78f
6:18am 6 7 mph 1015.3mb 84f 78f
6:12am 7 8 mph 1015.2mb 84f 78f
6:06am 6 7 mph 1015.1mb 84f 78f
6:00am 7
mph
1015mb 84f 78f
5:54am 6 7 mph 1015mb 84f 78f
5:48am 6 7 mph 1014.9mb 84f 78f
5:42am 6 7 mph 1014.9mb 84f 78f
5:36am 5 6 mph 1014.8mb 84f 78f
5:30am 5 7 mph 1014.7mb 84f 78f
5:24am 5
mph
1014.6mb 84f 78f
5:18am 5 6 mph 1014.6mb 84f 79f
5:12am 5 6 mph 1014.6mb 84f 78f
5:06am 5 6 mph 1014.7mb 84f 78f
5:00am 5 6 mph 1014.7mb 84f 79f
4:54am 6 7 mph 1014.7mb 84f 79f
4:48am 6 7 mph 1014.6mb 84f 78f
4:42am 6
mph
1014.6mb 84f 79f
4:36am 5 6 mph 1014.5mb 84f 79f
4:30am 6
mph
1014.4mb 84f 79f
4:24am 5 6 mph 1014.4mb 84f 79f
4:18am 5 6 mph 1014.4mb 84f 79f
4:12am 5
mph
1014.4mb 84f 79f
4:06am 3 5 mph 1014.4mb 84f 79f
4:00am  -  2 mph 1014.6mb 84f 78f
3:54am 2
mph
1014.5mb 84f 79f
3:48am 2
mph
1014.5mb 84f 79f
3:42am 2 5 mph 1014.6mb 84f 79f
3:36am 3 5 mph 1014.5mb 84f 80f
3:30am 3 5 mph 1014.5mb 84f 80f
3:24am 2
mph
1014.4mb 84f 80f
3:18am 2 3 mph 1014.3mb 84f 80f
3:12am 2 3 mph 1014.3mb 84f 80f
3:06am 2 5 mph 1014.4mb 84f 80f
3:00am 3 5 mph 1014.4mb 84f 80f
2:54am 3 6 mph 1014.4mb 84f 80f
2:48am 5
mph
1014.4mb 85f 80f
2:42am 3 6 mph 1014.4mb 85f 79f
2:36am 5 7 mph 1014.4mb 85f 80f
2:30am 5 6 mph 1014.4mb 85f 79f
2:24am  -  6 mph 1014.5mb 85f 79f
2:18am 5 8 mph 1014.7mb 85f 79f
2:12am 8 9 mph 1014.8mb 85f 80f
2:06am 2
mph
1014.8mb 85f 80f
2:00am  -  2 mph 1014.8mb 85f 80f
1:54am 2 3 mph 1014.8mb 85f 80f
1:48am 2 3 mph 1014.9mb 85f 80f
1:42am 2 3 mph 1014.9mb 85f 80f
1:36am 3 5 mph 1015.1mb 85f 80f
1:30am 3 5 mph 1015.2mb 85f 80f
1:24am 3 5 mph 1015.2mb 85f 81f
1:18am 2 3 mph 1015.3mb 85f 81f
1:12am 2 3 mph 1015.4mb 85f 81f
1:06am 3 5 mph 1015.4mb 85f 81f
1:00am 2 5 mph 1015.4mb 85f 81f
12:54am 3 6 mph 1015.4mb 85f 81f
12:48am 5 6 mph 1015.5mb 85f 81f
12:42am 5 6 mph 1015.5mb 85f 81f
12:36am 5 6 mph 1015.5mb 85f 81f
12:30am 5 6 mph 1015.6mb 85f 81f
12:24am 5 6 mph 1015.6mb 85f 82f
12:18am 6 7 mph 1015.7mb 85f 82f
12:12am 5 6 mph 1015.6mb 85f 82f
12:06am 6 7 mph 1015.7mb 85f 82f
12:00am 6 7 mph 1015.6mb 85f 82f
Sun 09/14 11:54pm 7
mph
1015.7mb 85f 82f
11:48pm 6 8 mph 1015.6mb 85f 82f
11:42pm 6 7 mph 1015.6mb 85f 82f
11:36pm 6 7 mph 1015.6mb 85f 82f
11:30pm 7 8 mph 1015.7mb 85f 82f
11:24pm 6 8 mph 1015.6mb 85f 82f
11:18pm 6 8 mph 1015.7mb 85f 82f
11:12pm 7 8 mph 1015.7mb 85f 82f
11:06pm 7 9 mph 1015.7mb 85f 82f
11:00pm 8 10 mph 1015.7mb 85f 83f
10:54pm 7 10 mph 1015.7mb 85f 83f
10:48pm 6 10 mph 1015.7mb 85f 83f
10:42pm 6 8 mph 1015.7mb 85f 83f
10:36pm 6 9 mph 1015.7mb 85f 83f
10:30pm 6 8 mph 1015.7mb 85f 83f
10:24pm 5 8 mph 1015.8mb 85f 83f
10:18pm 6 9 mph 1015.8mb 85f 83f
10:12pm 5 9 mph 1015.8mb 85f 83f
10:06pm 5 10 mph 1015.8mb 85f 83f
10:00pm 6 13 mph 1015.9mb 85f 83f
9:54pm 7 9 mph 1015.8mb 85f 84f
9:48pm 8 10 mph 1015.7mb 85f 83f
9:42pm 8 13 mph 1015.7mb 85f 84f
9:36pm 6 13 mph 1015.7mb 85f 84f
9:30pm 7 11 mph 1015.7mb 85f 84f
9:24pm 7 11 mph 1015.5mb 85f 83f
9:18pm 6 10 mph 1015.5mb 85f 84f
9:12pm 6 9 mph 1015.4mb 85f 84f
9:06pm 6 14 mph 1015.3mb 85f 84f
9:00pm 8 14 mph 1015.3mb 85f 84f
8:54pm 9 13 mph 1015.3mb 85f 83f
8:48pm 9 13 mph 1015.2mb 85f 83f
8:42pm 7 14 mph 1015.2mb 85f 83f
8:36pm 9 15 mph 1015.2mb 85f 84f
8:30pm 10 15 mph 1015.2mb 85f 84f
8:24pm 10 14 mph 1015.2mb 85f 84f
8:18pm 8 14 mph 1015.2mb 85f 84f
8:12pm 10 14 mph 1015.3mb 85f 83f
8:06pm 6 8 mph 1015.2mb 85f 83f
8:00pm 8 20 mph 1015.2mb 85f 82f
7:54pm 9 17 mph 1015.2mb 85f 83f
7:48pm 7 13 mph 1015.1mb 85f 84f
7:42pm 6 11 mph 1015mb 85f 84f
7:36pm 10 16 mph 1014.9mb 85f 84f
7:30pm 8 13 mph 1014.9mb 85f 84f
7:24pm 10 14 mph 1014.8mb 85f 84f
7:18pm 7 10 mph 1014.8mb 85f 84f
7:12pm 6 13 mph 1014.8mb 85f 84f
7:06pm 7 11 mph 1014.8mb 85f 84f
7:00pm 9 14 mph 1014.7mb 85f 84f
6:54pm 8 14 mph 1014.7mb 85f 84f
6:48pm 8 15 mph 1014.7mb 85f 84f
6:42pm 11 16 mph 1014.6mb 85f 84f
6:36pm 9 15 mph 1014.5mb 85f 84f
6:30pm 9 16 mph 1014.5mb 85f 84f
6:24pm 9 13 mph 1014.5mb 85f 84f
6:18pm 9 14 mph 1014.5mb 85f 84f
6:12pm 8 14 mph 1014.5mb 85f 84f
6:06pm 10 14 mph 1014.4mb 85f 84f
6:00pm 11 14 mph 1014.5mb 85f 84f
5:54pm 10 11 mph 1014.5mb 85f 84f
5:48pm 8 14 mph 1014.6mb 85f 84f
5:42pm 10 14 mph 1014.4mb 85f 84f
5:36pm 8 11 mph 1014.4mb 85f 84f
5:30pm 9 11 mph 1014.3mb 85f 84f
5:24pm 8 14 mph 1014.3mb 85f 84f
5:18pm 11 14 mph 1014.3mb 85f 84f
5:12pm 8 13 mph 1014.2mb 85f 84f
5:06pm 7 10 mph 1014.2mb 85f 84f
5:00pm 7 13 mph 1014.3mb 85f 84f
4:54pm 7 14 mph 1014.2mb 85f 85f
4:48pm 7 13 mph 1014.2mb 85f 84f
4:42pm 7 14 mph 1014.2mb 85f 85f
4:36pm 6 11 mph 1014.3mb 85f 85f
4:30pm 9 14 mph 1014.2mb 85f 85f
4:24pm 9 14 mph 1014.2mb 85f 85f
4:18pm 10 14 mph 1014.2mb 85f 85f
4:12pm 8 11 mph 1014.2mb 85f 85f
4:06pm 5 10 mph 1014.2mb 85f 85f
4:00pm 8 11 mph 1014.2mb 85f 85f
3:54pm 9 14 mph 1014.2mb 85f 85f
3:48pm 11 15 mph 1014.2mb 85f 85f
3:42pm 9 14 mph 1014.3mb 85f 85f
3:36pm 6 10 mph 1014.5mb 85f 85f
3:30pm 6 14 mph 1014.5mb 85f 85f
3:24pm 7 10 mph 1014.5mb 85f 85f
3:18pm 8 14 mph 1014.5mb 85f 85f
3:12pm 6 13 mph 1014.5mb 85f 85f
3:06pm 6 10 mph 1014.6mb 85f 85f
3:00pm 9 11 mph 1014.7mb 85f 85f
2:54pm 6 9 mph 1014.7mb 85f 85f
2:48pm 7 11 mph 1014.6mb 85f 85f
2:42pm 7 13 mph 1014.6mb 85f 85f
2:36pm 7 15 mph 1014.7mb 85f 85f
2:30pm 9 14 mph 1014.6mb 85f 85f
2:24pm 10 14 mph 1014.6mb 85f 85f
2:18pm 9 14 mph 1014.6mb 85f 85f
2:12pm 10 15 mph 1014.8mb 85f 85f
2:06pm 8 14 mph 1014.9mb 85f 85f
2:00pm 8 13 mph 1014.8mb 85f 85f
1:54pm 9 14 mph 1014.8mb 85f 85f
1:48pm 10 15 mph 1014.7mb 85f 85f
1:42pm 7 10 mph 1014.7mb 85f 86f
1:36pm 9 15 mph 1014.8mb 85f 86f
1:30pm 13 16 mph 1014.8mb 85f 86f
1:24pm 10 18 mph 1014.8mb 85f 86f
1:18pm 14 20 mph 1014.8mb 85f 85f
1:12pm 9 16 mph 1015mb 85f 86f
1:06pm 9 16 mph 1015.2mb 85f 85f
1:00pm 9 14 mph 1015.2mb 85f 85f
12:54pm 11 15 mph 1015.3mb 85f 85f
12:48pm 13 18 mph 1015.4mb 85f 85f
12:42pm 10 17 mph 1015.3mb 85f 85f
12:36pm 14 18 mph 1015.3mb 85f 85f
12:30pm 10 15 mph 1015.5mb 85f 85f
12:24pm 13 17 mph 1015.6mb 85f 85f
12:18pm 7 10 mph 1015.7mb 85f 85f
12:12pm 9 13 mph 1015.7mb 85f 85f
12:06pm 8 15 mph 1015.9mb 85f 85f
12:00pm 11 17 mph 1015.9mb 85f 85f
11:54am 9 15 mph 1016mb 85f 85f
11:48am 8 13 mph 1016.1mb 85f 85f
11:42am 10 14 mph 1016.1mb 85f 85f
11:36am 10 17 mph 1016.2mb 85f 85f
11:30am 13 15 mph 1016.2mb 85f 84f
11:24am 9 14 mph 1016.3mb 85f 85f
11:18am 11 15 mph 1016.4mb 85f 84f
11:12am 10 15 mph 1016.3mb 85f 84f
11:06am 14 16 mph 1016.4mb 85f 85f
11:00am 14 16 mph 1016.5mb 85f 85f
10:54am 11 16 mph 1016.4mb 85f 85f
10:48am 13 16 mph 1016.5mb 85f 85f
10:42am 8 13 mph 1016.4mb 85f 86f
10:36am 8 15 mph 1016.5mb 85f 86f
10:30am 7 11 mph 1016.5mb 85f 86f
10:24am 7 15 mph 1016.5mb 85f 86f
10:18am 9 14 mph 1016.5mb 85f 86f
10:12am 7 13 mph 1016.5mb 85f 86f
10:06am 8 14 mph 1016.6mb 85f 86f
10:00am 9 13 mph 1016.6mb 85f 85f
9:54am 7 11 mph 1016.5mb 85f 86f
9:48am 7 10 mph 1016.4mb 85f 85f
9:42am 7 11 mph 1016.5mb 85f 85f
9:36am 7 10 mph 1016.4mb 85f 85f
9:30am 6 11 mph 1016.4mb 85f 85f
9:24am 9 14 mph 1016.3mb 85f 83f
9:18am 6 9 mph 1016.3mb 85f 83f
9:12am 3 6 mph 1016.3mb 85f 83f
9:06am 5 7 mph 1016.3mb 85f 82f
9:00am 3 14 mph 1016.4mb 85f 80f
8:54am 13 21 mph 1016.6mb 85f 80f
8:48am 6 8 mph 1016.2mb 85f 83f
8:42am 3 7 mph 1016.1mb 85f 83f
8:36am 5 8 mph 1016.1mb 85f 82f
8:30am 3 6 mph 1016.1mb 85f 80f
8:24am 5 10 mph 1016.1mb 85f 80f
8:18am 9 11 mph 1016.2mb 85f 80f
8:12am 6
mph
1016mb 85f 80f
8:06am 6
mph
1015.9mb 85f 80f
8:00am 5 7 mph 1015.9mb 85f 80f
7:54am 6 7 mph 1015.8mb 85f 80f
7:48am 5 6 mph 1015.7mb 85f 80f
7:42am 5 7 mph 1015.6mb 85f 80f
7:36am 6 8 mph 1015.5mb 85f 80f
7:30am 6 7 mph 1015.5mb 85f 80f
7:24am 7 11 mph 1015.3mb 85f 80f
7:18am 9 11 mph 1015.3mb 85f 80f
7:12am 7
mph
1015.4mb 85f 80f
7:06am 5 6 mph 1015.1mb 85f 80f
7:00am 5 6 mph 1015.1mb 85f 80f
6:54am 5
mph
1015mb 85f 80f
6:48am 5 6 mph 1014.9mb 85f 80f
6:42am 5
mph
1014.9mb 85f 80f
6:36am 3 6 mph 1014.8mb 85f 80f
6:30am 3 6 mph 1014.8mb 85f 80f
6:24am 6 7 mph 1014.8mb 85f 80f
6:18am 5 7 mph 1014.8mb 85f 80f
6:12am 5 7 mph 1014.8mb 85f 80f
6:06am 5 6 mph 1014.8mb 85f 79f
6:00am 5 6 mph 1014.8mb 85f 79f
5:54am 6 7 mph 1014.8mb 85f 79f
5:48am 5 6 mph 1014.8mb 85f 79f
5:42am 3 6 mph 1014.6mb 85f 79f
5:36am 5 6 mph 1014.6mb 85f 79f
5:30am 6 7 mph 1014.7mb 85f 79f
5:24am 5 6 mph 1014.6mb 85f 80f
5:18am 3 6 mph 1014.5mb 85f 79f
5:12am 6
mph
1014.4mb 85f 78f
5:06am 3 6 mph 1014.4mb 85f 79f
5:00am 2 3 mph 1014.5mb 85f 79f
4:54am 2 3 mph 1014.5mb 85f 78f
4:48am 3 6 mph 1014.7mb 85f 78f
4:42am 6 8 mph 1014.4mb 85f 78f
4:36am 5 8 mph 1014.4mb 85f 79f
4:30am 5 8 mph 1014.4mb 85f 79f
4:24am 7 8 mph 1014.2mb 85f 79f
4:18am 7 8 mph 1014.1mb 85f 79f
4:12am 6 9 mph 1014.1mb 85f 79f
4:06am 9 11 mph 1014.1mb 85f 79f
4:00am 8 16 mph 1014.2mb 85f 78f
3:54am 8 10 mph 1014.6mb 85f 79f
3:48am 9 13 mph 1014.2mb 85f 79f
3:42am 11 13 mph 1014.3mb 85f 79f
3:36am 11 14 mph 1014.3mb 85f 80f
3:30am 13 15 mph 1014.3mb 85f 80f
3:24am 13 20 mph 1014.1mb 85f 81f
3:18am 11 15 mph 1013.9mb 85f 83f
3:12am 13 17 mph 1014mb 85f 83f
3:06am 11 17 mph 1014.1mb 85f 84f
3:00am 15 18 mph 1014.1mb 85f 84f
2:54am 11 16 mph 1014.1mb 85f 84f
2:48am 13 16 mph 1014.1mb 85f 83f
2:42am 13 16 mph 1014.1mb 85f 84f
2:24am 14 20 mph 1014.5mb 85f 84f
2:06am 14 20 mph 1014.4mb 85f 84f
2:00am 13 23 mph 1014.4mb 85f 84f
1:54am 14 21 mph 1014.4mb 85f 84f
1:48am 17 20 mph 1014.4mb 85f 84f
1:42am 14 20 mph 1014.5mb 85f 84f
1:36am 15 18 mph 1014.5mb 85f 84f
1:30am 14 18 mph 1014.4mb 85f 84f
1:24am 11 15 mph 1014.6mb 85f 84f
1:18am 10 20 mph 1014.6mb 85f 84f
1:12am 15 18 mph 1014.7mb 85f 84f
1:06am 14 18 mph 1014.8mb 85f 84f
1:00am 13 17 mph 1014.9mb 85f 84f
12:54am 15 20 mph 1014.9mb 85f 84f
12:48am 15 17 mph 1014.9mb 85f 84f
12:42am 14 18 mph 1014.9mb 85f 84f
12:36am 15 20 mph 1014.8mb 85f 84f
12:30am 15 18 mph - 85f 84f
12:24am 15 22 mph - 85f 84f
12:18am 13 18 mph - 85f 84f
12:12am 13 16 mph 1015mb 85f 84f
12:06am 11 16 mph 1015mb 85f 84f
12:00am 13 18 mph 1015.1mb 85f 84f
Sat 09/13 11:42pm 13 17 mph 1015.3mb 85f 84f
11:36pm 14 20 mph 1015.2mb 85f 84f
11:30pm 14 21 mph 1015.3mb 85f 84f
11:24pm 15 18 mph 1015.3mb 85f 84f
11:18pm 14 16 mph 1015.4mb 85f 84f
11:12pm 13 20 mph 1015.4mb 85f 84f
11:06pm 11 15 mph 1015.4mb 85f 84f
11:00pm 14 20 mph 1015.4mb 85f 84f
10:36pm 11 16 mph 1015.7mb 85f 84f
10:30pm 14 18 mph 1015.6mb 85f 84f
10:12pm 13 17 mph 1015.6mb 85f 84f
10:06pm 14 17 mph 1015.6mb 85f 84f
9:48pm 10 14 mph 1015.7mb 85f 84f
9:42pm 10 15 mph 1015.8mb 85f 83f
9:36pm 13 17 mph 1015.8mb 85f 83f
9:30pm 11 18 mph 1015.7mb 85f 83f
9:24pm 14 18 mph 1015.6mb 85f 84f
9:18pm 13 20 mph 1015.6mb 85f 84f
9:12pm 15 17 mph 1015.7mb 85f 84f
9:06pm 13 17 mph 1015.5mb 85f 84f
9:00pm 13 17 mph 1015.5mb 85f 84f
8:54pm 13 17 mph 1015.5mb 85f 84f
8:48pm 14 16 mph 1015.4mb 85f 84f
8:42pm 11 16 mph 1015.5mb 85f 84f
8:36pm 11 17 mph 1015.4mb 85f 84f
8:30pm 14 16 mph 1015.3mb 85f 84f
8:24pm 13 17 mph 1015.2mb 85f 84f
8:18pm 14 20 mph 1015.2mb 85f 84f
8:12pm 15 20 mph 1015.2mb 85f 84f
8:06pm 14 17 mph 1015.2mb 85f 84f
8:00pm 11 17 mph 1015.1mb 85f 84f
7:54pm 14 17 mph 1015.1mb 85f 84f
7:48pm 11 17 mph 1015.1mb 85f 84f
7:42pm 13 18 mph 1015mb 86f 84f
7:36pm 15 18 mph 1015mb 86f 84f
7:30pm 13 18 mph 1015mb 86f 84f
7:24pm 14 17 mph 1015mb 86f 85f
7:18pm 15 21 mph 1015mb 86f 85f
7:12pm 16 22 mph 1014.9mb 86f 84f
7:06pm 13 18 mph 1014.8mb 86f 84f
7:00pm 15 18 mph 1014.7mb 86f 85f
6:54pm 14 22 mph 1014.7mb 86f 85f
6:48pm 13 17 mph 1014.7mb 86f 85f
6:42pm 14 18 mph 1014.6mb 86f 85f
6:36pm 14 20 mph 1014.5mb 86f 85f
6:30pm 14 20 mph 1014.4mb 86f 85f
6:24pm 15 18 mph 1014.4mb 86f 85f
6:18pm 15 21 mph 1014.4mb 86f 85f
6:12pm 10 17 mph 1014.4mb 86f 85f
6:06pm 15 20 mph 1014.3mb 86f 85f
6:00pm 11 16 mph 1014.3mb 86f 85f
5:54pm 14 18 mph 1014.2mb 86f 85f
5:48pm 14 20 mph 1014.3mb 86f 85f
5:42pm 15 18 mph 1014.4mb 86f 84f
5:36pm 13 17 mph 1014.3mb 86f 85f
5:30pm 16 18 mph 1014.4mb 86f 85f
5:24pm 15 20 mph 1014.4mb 86f 85f
5:18pm 14 17 mph 1014.4mb 86f 85f
5:12pm 14 17 mph 1014.4mb 86f 85f
5:06pm 11 17 mph 1014.3mb 86f 85f
5:00pm 13 20 mph 1014.4mb 86f 85f
4:54pm 15 21 mph 1014.5mb 86f 85f
4:48pm 11 18 mph 1014.5mb 86f 85f
4:42pm 14 18 mph 1014.4mb 86f 85f
4:36pm 11 15 mph 1014.5mb 86f 85f
4:30pm 11 21 mph 1014.4mb 86f 85f
4:24pm 16 21 mph 1014.4mb 86f 86f
4:18pm 16 20 mph 1014.5mb 86f 86f
4:12pm 15 20 mph 1014.5mb 86f 86f
4:06pm 16 21 mph 1014.5mb 86f 86f
4:00pm 13 18 mph 1014.5mb 86f 86f
3:54pm 13 17 mph 1014.5mb 86f 85f
3:48pm 10 17 mph 1014.6mb 86f 86f
3:42pm 14 18 mph 1014.6mb 86f 86f
3:36pm 15 18 mph 1014.5mb 86f 86f
3:30pm 15 20 mph 1014.5mb 86f 86f
3:24pm 15 20 mph 1014.5mb 86f 86f
3:18pm 15 18 mph 1014.6mb 86f 86f
3:12pm 15 21 mph 1014.6mb 86f 86f
3:06pm 13 18 mph 1014.5mb 86f 86f
3:00pm 16 21 mph 1014.7mb 86f 86f
2:54pm 13 16 mph 1014.8mb 86f 86f
2:48pm 15 18 mph 1014.9mb 86f 86f
2:42pm 17 21 mph 1014.9mb 86f 86f
2:36pm 16 21 mph 1014.8mb 86f 86f
2:30pm 13 18 mph 1014.8mb 86f 86f
2:24pm 15 23 mph 1015mb 86f 86f
2:18pm 15 21 mph 1015.1mb 86f 86f
2:12pm 14 22 mph 1015.1mb 86f 86f
2:06pm 15 22 mph 1015mb 86f 86f
2:00pm 14 18 mph 1015mb 86f 86f
1:54pm 13 16 mph 1015.1mb 86f 87f
1:48pm 11 18 mph 1015.3mb 86f 87f
1:42pm 13 17 mph 1015.3mb 86f 86f
1:36pm 14 16 mph 1015.3mb 86f 86f
1:30pm 14 18 mph 1015.4mb 86f 86f
1:24pm 14 18 mph 1015.4mb 86f 86f
1:18pm 14 16 mph 1015.5mb 86f 86f
1:12pm 11 20 mph 1015.6mb 86f 87f
1:06pm 14 18 mph 1015.7mb 86f 86f
1:00pm 14 18 mph 1015.7mb 86f 86f
12:54pm 14 18 mph 1015.8mb 86f 86f
12:48pm 15 18 mph 1015.7mb 86f 86f
12:42pm 14 18 mph 1015.8mb 86f 86f
12:36pm 14 18 mph 1015.9mb 86f 86f
12:30pm 14 20 mph 1015.9mb 86f 86f
12:24pm 15 20 mph 1015.9mb 86f 86f
12:18pm 15 18 mph 1016mb 86f 86f
12:12pm 14 18 mph 1016mb 85f 86f
12:06pm 15 21 mph 1016.1mb 85f 86f
12:00pm 16 20 mph 1016.1mb 85f 86f
11:54am 15 18 mph 1016.1mb 85f 86f
11:48am 15 20 mph 1016.2mb 85f 86f
11:42am 15 20 mph 1016.3mb 85f 86f
11:36am 15 17 mph 1016.4mb 85f 86f
11:30am 14 17 mph 1016.4mb 85f 86f
11:24am 14 17 mph 1016.4mb 85f 86f
11:18am 14 17 mph 1016.4mb 85f 86f
11:12am 13 18 mph 1016.5mb 85f 86f
11:06am 13 20 mph 1016.5mb 85f 86f
11:00am 16 21 mph 1016.4mb 85f 85f
10:54am 16 21 mph 1016.5mb 85f 86f
10:48am 14 18 mph 1016.5mb 85f 85f
10:42am 13 21 mph 1016.5mb 85f 86f
10:36am 17 21 mph 1016.5mb 85f 85f
10:30am 11 17 mph 1016.5mb 85f 86f
10:24am 13 16 mph 1016.5mb 85f 85f
10:18am 11 17 mph 1016.6mb 85f 85f
10:12am 15 18 mph 1016.5mb 85f 85f
10:06am 13 18 mph 1016.5mb 85f 85f
10:00am 15 17 mph 1016.5mb 85f 85f
9:54am 15 18 mph 1016.5mb 85f 85f
9:48am 13 17 mph 1016.4mb 85f 86f
9:42am 14 17 mph 1016.4mb 85f 86f
9:36am 13 18 mph 1016.4mb 85f 85f
9:30am 14 16 mph 1016.4mb 85f 85f
9:24am 13 17 mph 1016.4mb 85f 85f
9:18am 9 13 mph 1016.4mb 85f 84f
9:12am 13 18 mph 1016.4mb 85f 82f
9:06am 16 20 mph 1016.3mb 85f 81f
9:00am 13 16 mph 1016.2mb 85f 84f
8:54am 14 15 mph 1016.2mb 85f 84f
8:48am 11 17 mph 1016.1mb 85f 85f
8:42am 14 17 mph 1016.1mb 85f 85f
8:36am 10 15 mph 1016.1mb 85f 84f
8:30am 11 16 mph 1016mb 85f 84f
8:24am 10 15 mph 1016mb 85f 85f
8:18am 11 15 mph 1015.9mb 85f 85f
8:12am 13 17 mph 1015.9mb 85f 85f
8:06am 14 17 mph 1015.8mb 85f 84f
8:00am 13 16 mph 1015.8mb 85f 85f
7:54am 14 20 mph 1015.7mb 85f 85f
7:48am 14 17 mph 1015.6mb 85f 84f
7:42am 10 16 mph 1015.5mb 85f 84f
7:36am 10 15 mph 1015.4mb 85f 83f
7:30am 10 14 mph 1015.3mb 85f 84f
7:24am 10 14 mph 1015.2mb 85f 84f
7:18am 13 16 mph 1015.1mb 85f 84f
7:12am 10 15 mph 1015mb 85f 84f
7:06am 10 15 mph 1015.1mb 85f 84f
7:00am 13 16 mph 1014.9mb 85f 84f
6:54am 11 15 mph 1014.9mb 85f 83f
6:48am 14 17 mph 1014.8mb 85f 83f
6:42am 11 15 mph 1014.8mb 85f 83f
6:36am 11 17 mph 1014.8mb 85f 83f
6:30am 10 14 mph 1014.7mb 85f 83f
6:24am 10 16 mph 1014.7mb 85f 83f
6:18am 14 18 mph 1014.7mb 85f 83f
6:12am 14 18 mph 1014.5mb 85f 83f
6:06am 11 15 mph 1014.5mb 85f 83f
6:00am 11 15 mph 1014.4mb 85f 83f
5:54am 14 16 mph 1014.3mb 85f 83f
5:48am 14 16 mph 1014.3mb 85f 83f
5:42am 13 15 mph 1014.3mb 85f 83f
5:36am 13 16 mph 1014.2mb 85f 83f
5:30am 14 18 mph 1014.2mb 85f 83f
5:24am 14 18 mph 1014.1mb 85f 83f
5:18am 13 18 mph 1014mb 85f 83f
5:12am 11 16 mph 1013.9mb 85f 83f
5:06am 13 15 mph 1013.9mb 85f 83f
5:00am 13 16 mph 1013.9mb 85f 83f
4:54am 13 18 mph 1013.9mb 85f 83f
4:48am 14 16 mph 1013.8mb 85f 83f
4:42am 9 15 mph 1013.8mb 85f 83f
4:36am 8 11 mph 1013.9mb 85f 83f
4:30am 7 10 mph 1014mb 85f 83f
4:24am 7 10 mph 1014mb 85f 83f
4:18am 9 17 mph 1013.9mb 85f 83f
4:12am 11 16 mph 1013.8mb 85f 83f
4:06am 8 14 mph 1014mb 85f 83f
4:00am 7 13 mph 1013.9mb 85f 83f
3:54am 9 14 mph 1014mb 85f 83f
3:48am 9 11 mph 1013.9mb 85f 83f
3:42am 6 7 mph 1014mb 85f 83f
3:36am 7 10 mph 1014mb 85f 82f
3:24am 6 8 mph 1014mb 85f 83f
3:18am 8 10 mph 1014mb 85f 83f
3:12am 8 10 mph 1014mb 85f 83f
3:06am 9 14 mph 1014mb 85f 83f
3:00am 7 9 mph 1014mb 85f 83f
2:54am 8 14 mph 1013.9mb 85f 83f
2:48am 10 14 mph 1013.9mb 85f 83f
2:42am 9 14 mph 1014mb 85f 83f
2:36am 9 14 mph 1014.1mb 85f 83f
2:30am 11 15 mph 1014.1mb 85f 83f
2:24am 10 16 mph 1014.1mb 85f 83f
2:18am 10 15 mph 1014.1mb 85f 83f
2:12am 10 11 mph 1014.1mb 85f 83f
2:06am 13 14 mph 1014.3mb 85f 83f
2:00am 11 16 mph 1014.4mb 85f 83f
1:54am 14 17 mph 1014.4mb 85f 83f
1:48am 15 20 mph 1014.5mb 85f 83f
1:42am 15 17 mph 1014.5mb 85f 83f
1:36am 13 15 mph 1014.6mb 85f 83f
1:30am 11 20 mph 1014.6mb 85f 83f
1:24am 15 17 mph 1014.7mb 85f 83f
1:18am 15 17 mph 1014.8mb 85f 83f
1:12am 13 17 mph 1014.8mb 85f 83f
1:06am 13 15 mph 1014.9mb 85f 83f
1:00am 14 16 mph 1015mb 85f 84f
12:54am 14 20 mph 1015mb 85f 84f
12:48am 15 17 mph 1015mb 85f 83f
12:42am 11 16 mph 1015.1mb 85f 83f
12:36am 13 15 mph 1015.2mb 85f 84f
12:30am 11 15 mph 1015.2mb 85f 83f
12:24am 11 15 mph 1015.3mb 85f 83f
12:18am 9 14 mph 1015.3mb 85f 83f
12:12am 9 14 mph 1015.4mb 85f 84f
12:06am 13 16 mph 1015.4mb 85f 84f
12:00am 11 18 mph 1015.5mb 85f 84f
Fri 09/12 11:54pm 16 20 mph 1015.5mb 85f 84f
11:48pm 14 18 mph 1015.5mb 85f 83f
11:42pm 14 16 mph 1015.6mb 85f 83f
11:36pm 15 17 mph 1015.6mb 85f 84f
11:30pm 13 17 mph 1015.6mb 85f 84f
11:24pm 14 16 mph 1015.6mb 85f 84f
11:18pm 14 17 mph 1015.6mb 85f 84f
11:12pm 13 15 mph 1015.6mb 85f 84f
11:06pm 10 16 mph 1015.7mb 85f 83f
11:00pm 11 14 mph 1015.7mb 85f 84f
10:54pm 13 15 mph 1015.7mb 85f 84f
10:48pm 13 15 mph 1015.8mb 85f 84f
10:42pm 11 15 mph 1015.8mb 85f 84f
10:36pm 13 15 mph 1015.8mb 85f 84f
10:30pm 9 14 mph 1015.8mb 85f 84f
10:24pm 11 15 mph 1015.8mb 85f 84f
10:18pm 13 16 mph 1015.8mb 85f 84f
10:12pm 14 17 mph 1015.7mb 85f 84f
10:06pm 13 15 mph 1015.8mb 85f 83f
10:00pm 11 14 mph 1015.7mb 85f 84f
9:54pm 10 14 mph 1015.8mb 85f 84f
9:48pm 13 15 mph 1015.8mb 85f 84f
9:42pm 13 14 mph 1015.7mb 85f 84f
9:36pm 13 16 mph 1015.7mb 85f 84f
9:30pm 13 17 mph 1015.6mb 85f 84f
9:24pm 13 15 mph 1015.5mb 85f 84f
9:18pm 11 15 mph 1015.4mb 85f 84f
9:12pm 11 15 mph 1015.3mb 85f 84f
9:06pm 13 15 mph 1015.2mb 85f 84f
9:00pm 13 16 mph 1015.1mb 85f 84f
8:54pm 13 16 mph 1015mb 85f 84f
8:48pm 13 15 mph 1014.9mb 85f 84f
8:42pm 10 15 mph 1014.9mb 85f 84f
8:36pm 11 14 mph 1014.8mb 85f 84f
8:30pm 11 16 mph 1014.7mb 85f 84f
8:24pm 14 17 mph 1014.5mb 85f 84f
8:18pm 11 16 mph 1014.5mb 85f 84f
8:12pm 14 16 mph 1014.4mb 85f 84f
8:06pm 14 16 mph 1014.3mb 85f 84f
8:00pm 14 17 mph 1014.2mb 85f 84f
7:54pm 11 14 mph 1014.2mb 85f 84f
7:48pm 11 15 mph 1014.1mb 85f 84f
7:42pm 10 15 mph 1014.1mb 85f 84f
7:36pm 13 16 mph 1014.1mb 85f 84f
7:30pm 14 15 mph 1014mb 85f 84f
7:24pm 11 14 mph 1014mb 85f 84f
7:18pm 15 18 mph 1014mb 85f 84f
7:12pm 15 17 mph 1013.9mb 85f 84f
7:06pm 14 17 mph 1013.8mb 85f 84f
7:00pm 14 16 mph 1013.9mb 85f 84f
6:54pm 14 16 mph 1013.8mb 85f 84f
6:48pm 11 17 mph 1013.9mb 85f 85f
6:42pm 14 17 mph 1013.8mb 85f 84f
6:36pm 14 17 mph 1013.9mb 85f 84f
6:30pm 15 18 mph 1013.8mb 85f 84f
6:24pm 15 20 mph 1013.8mb 85f 84f
6:18pm 15 18 mph 1013.8mb 85f 84f
6:12pm 14 20 mph 1013.8mb 85f 85f
6:06pm 15 17 mph 1013.8mb 85f 85f
6:00pm 14 17 mph 1013.8mb 85f 85f
5:54pm 16 18 mph 1013.8mb 85f 85f
5:48pm 16 21 mph 1013.8mb 85f 85f
5:42pm 16 18 mph 1013.8mb 85f 85f
5:36pm 16 18 mph 1013.7mb 85f 85f
5:30pm 14 16 mph 1013.7mb 85f 85f
5:24pm 11 16 mph 1013.8mb 85f 85f
5:18pm 15 18 mph 1013.8mb 85f 85f
5:12pm 14 18 mph 1013.8mb 85f 85f
5:06pm 13 16 mph 1013.8mb 85f 86f
5:00pm 14 17 mph 1013.7mb 85f 86f
4:54pm 13 17 mph 1013.7mb 85f 86f